Time;durP1;ratioP1;P1;durP2;ratioP2;P2;SDS_P1;SDS_P2;PMS_P1;PMS_P2;Temp;Humidity;BMP_temperature;BMP_pressure;BME280_temperature;BME280_humidity;BME280_pressure;Samples;Min_cycle;Max_cycle;Signal;HPM_P1;HPM_P2
2022/09/07 00:00:26;;;;;;;4.57;3.92;;;;;;;15.54;64.38;95305.34;5133745;27;20034;-78
2022/09/07 00:02:52;;;;;;;5.78;3.83;;;;;;;15.55;64.17;95311.44;5134664;27;20496;-78
2022/09/07 00:05:17;;;;;;;4.53;3.80;;;;;;;15.58;63.93;95305.91;5134931;27;20031;-78
2022/09/07 00:07:43;;;;;;;4.70;3.95;;;;;;;15.65;63.66;95310.38;5116374;27;20026;-78
2022/09/07 00:10:08;;;;;;;4.30;3.45;;;;;;;15.69;63.36;95307.53;5116173;27;20088;-78
2022/09/07 00:12:34;;;;;;;5.40;3.65;;;;;;;15.68;63.46;95305.84;5133278;27;20122;-78
2022/09/07 00:15:01;;;;;;;4.38;3.67;;;;;;;15.62;63.25;95308.06;5133382;27;20050;-78
2022/09/07 00:17:26;;;;;;;4.63;3.70;;;;;;;15.53;63.51;95313.34;5133306;27;20026;-78
2022/09/07 00:19:54;;;;;;;5.55;3.88;;;;;;;15.57;63.40;95310.31;5116188;27;20102;-78
2022/09/07 00:22:19;;;;;;;4.93;3.75;;;;;;;15.44;63.49;95301.97;5133127;27;20042;-78
2022/09/07 00:24:45;;;;;;;7.30;3.67;;;;;;;15.47;63.71;95303.47;5133256;27;20027;-78
2022/09/07 00:27:10;;;;;;;5.20;3.80;;;;;;;15.35;63.83;95301.03;5115969;27;20027;-78
2022/09/07 00:29:36;;;;;;;4.68;3.70;;;;;;;15.31;63.95;95298.84;5115806;27;20063;-78
2022/09/07 00:32:02;;;;;;;4.43;3.70;;;;;;;15.20;63.91;95305.09;5133013;27;20498;-78
2022/09/07 00:34:27;;;;;;;4.32;3.72;;;;;;;15.11;64.19;95304.16;5132527;27;20047;-78
2022/09/07 00:36:52;;;;;;;4.07;3.40;;;;;;;15.05;64.04;95296.88;5115981;27;20497;-78
2022/09/07 00:39:18;;;;;;;4.00;3.45;;;;;;;15.04;63.95;95308.28;5116002;27;20465;-78
2022/09/07 00:41:43;;;;;;;3.80;3.40;;;;;;;15.08;63.91;95307.06;5134458;27;20374;-78
2022/09/07 00:44:43;;;;;;;4.32;3.50;;;;;;;15.09;63.89;95306.06;5115486;27;20421;-78
2022/09/07 00:47:14;;;;;;;4.20;3.47;;;;;;;15.10;63.71;95305.13;5133874;27;20080;-78
2022/09/07 00:49:40;;;;;;;4.32;3.67;;;;;;;15.01;63.83;95308.59;5099156;27;20069;-78
2022/09/07 00:52:05;;;;;;;3.95;3.50;;;;;;;15.07;63.41;95313.28;5115408;27;20062;-78
2022/09/07 00:54:39;;;;;;;5.15;3.60;;;;;;;15.13;63.06;95304.84;5115473;27;20031;-78
2022/09/07 00:57:05;;;;;;;4.25;3.50;;;;;;;15.09;62.97;95298.22;5115457;27;20031;-78
2022/09/07 00:59:33;;;;;;;4.90;3.28;;;;;;;15.16;62.72;95299.31;5115477;27;20068;-78
2022/09/07 01:01:58;;;;;;;4.20;3.45;;;;;;;15.20;62.84;95297.22;5098562;27;20031;-78
2022/09/07 01:04:24;;;;;;;5.50;3.20;;;;;;;15.19;62.70;95295.59;5098199;27;20027;-78
2022/09/07 01:06:50;;;;;;;4.47;3.10;;;;;;;15.18;62.79;95281.69;5098436;27;20038;-78
2022/09/07 01:09:17;;;;;;;3.63;3.00;;;;;;;15.18;62.58;95286.94;5115038;27;20412;-78
2022/09/07 01:11:49;;;;;;;4.03;3.22;;;;;;;15.17;62.96;95287.06;5115592;27;20035;-78
2022/09/07 01:14:15;;;;;;;3.40;3.10;;;;;;;15.11;62.49;95283.22;5116141;27;20397;-78
2022/09/07 01:16:49;;;;;;;3.90;3.17;;;;;;;15.08;62.89;95288.75;5098032;27;20031;-78
2022/09/07 01:19:48;;;;;;;4.30;3.15;;;;;;;15.01;63.47;95287.66;5131945;27;20028;-78
2022/09/07 01:22:25;;;;;;;6.03;3.15;;;;;;;14.91;63.43;95286.88;5131934;27;20042;-78
2022/09/07 01:25:09;;;;;;;5.72;2.97;;;;;;;14.87;62.98;95280.25;5131999;27;20023;-78
2022/09/07 01:27:56;;;;;;;5.28;2.90;;;;;;;14.91;62.97;95284.25;5133240;27;20173;-78
2022/09/07 01:30:22;;;;;;;4.15;3.17;;;;;;;14.89;63.25;95286.19;5131846;27;20031;-78
2022/09/07 01:33:17;;;;;;;3.53;3.22;;;;;;;14.89;63.05;95283.56;5114763;27;20020;-78
2022/09/07 01:35:51;;;;;;;3.70;3.25;;;;;;;14.85;63.17;95287.41;5108060;27;20175;-78
2022/09/07 01:38:29;;;;;;;3.35;2.90;;;;;;;14.75;62.84;95274.38;5132976;27;20481;-78
2022/09/07 01:41:00;;;;;;;3.65;3.10;;;;;;;14.77;62.85;95284.72;5115860;27;20027;-78
2022/09/07 01:43:50;;;;;;;4.45;2.92;;;;;;;14.82;62.42;95287.72;5132630;27;20053;-78
2022/09/07 01:46:49;;;;;;;5.55;3.05;;;;;;;14.81;62.17;95280.84;5130815;27;20031;-78
2022/09/07 01:49:22;;;;;;;4.65;3.10;;;;;;;14.79;62.17;95272.31;5099381;27;20545;-78
2022/09/07 01:51:51;;;;;;;7.70;3.15;;;;;;;14.81;62.18;95281.66;5098073;27;20047;-78
2022/09/07 01:54:21;;;;;;;8.07;3.10;;;;;;;14.91;63.48;95281.66;5131416;27;20042;-78
2022/09/07 01:56:47;;;;;;;4.35;2.88;;;;;;;14.88;63.46;95277.53;5131631;27;20126;-77
2022/09/07 01:59:34;;;;;;;4.53;2.90;;;;;;;14.83;62.83;95271.06;5114213;27;20490;-78
2022/09/07 02:02:29;;;;;;;5.28;3.00;;;;;;;14.80;63.13;95276.59;5131238;27;20047;-78
2022/09/07 02:05:02;;;;;;;3.75;2.92;;;;;;;14.69;63.04;95267.94;5118350;27;20531;-78
2022/09/07 02:07:29;;;;;;;4.38;2.80;;;;;;;14.65;63.37;95277.00;5115103;27;20034;-77
2022/09/07 02:10:21;;;;;;;3.80;2.83;;;;;;;14.65;63.90;95268.34;5131221;27;20031;-78
2022/09/07 02:12:52;;;;;;;3.53;3.10;;;;;;;14.61;63.64;95267.81;5114823;27;20512;-77
2022/09/07 02:15:23;;;;;;;4.05;3.20;;;;;;;14.59;63.40;95261.88;5097163;27;20031;-78
2022/09/07 02:17:51;;;;;;;3.70;2.85;;;;;;;14.50;63.11;95267.94;5114075;27;20489;-78
2022/09/07 02:20:20;;;;;;;6.75;3.13;;;;;;;14.49;63.65;95261.88;5113934;27;20039;-78
2022/09/07 02:22:48;;;;;;;4.88;2.88;;;;;;;14.45;63.14;95259.69;5114092;28;20027;-78
2022/09/07 02:25:19;;;;;;;4.25;2.90;;;;;;;14.37;63.08;95241.25;5113751;27;20035;-77
2022/09/07 02:27:54;;;;;;;3.33;2.67;;;;;;;14.44;62.73;95256.25;5097181;27;20450;-77
2022/09/07 02:30:19;;;;;;;3.15;2.63;;;;;;;14.47;62.51;95253.34;5113887;27;20070;-78
2022/09/07 02:32:45;;;;;;;3.55;2.80;;;;;;;14.51;62.43;95259.13;5096814;27;20051;-78
2022/09/07 02:35:10;;;;;;;4.97;2.70;;;;;;;14.53;62.91;95252.81;5096659;28;20417;-78
2022/09/07 02:37:36;;;;;;;4.03;2.88;;;;;;;14.45;62.33;95247.44;5130811;27;20088;-78
2022/09/07 02:40:02;;;;;;;3.45;2.72;;;;;;;14.46;62.96;95256.13;5113505;28;20401;-78
2022/09/07 02:42:28;;;;;;;6.45;3.03;;;;;;;14.46;62.53;95263.97;5113672;27;20111;-78
2022/09/07 02:44:53;;;;;;;3.50;2.42;;;;;;;14.43;62.66;95256.38;5096651;28;20082;-77
2022/09/07 02:47:39;;;;;;;4.30;2.72;;;;;;;14.38;63.08;95253.38;5131819;27;20046;-78
2022/09/07 02:50:14;;;;;;;5.25;2.70;;;;;;;14.36;62.72;95260.53;5130536;28;20497;-78
2022/09/07 02:53:07;;;;;;;3.00;2.60;;;;;;;14.26;62.64;95265.75;5131776;27;20032;-78
2022/09/07 02:55:44;;;;;;;4.07;2.60;;;;;;;14.25;61.89;95270.16;5130544;27;20109;-77
2022/09/07 02:58:13;;;;;;;4.07;2.38;;;;;;;14.25;62.11;95264.94;5134577;27;20079;-77
2022/09/07 03:00:47;;;;;;;3.65;2.20;;;;;;;14.19;61.84;95260.25;5135947;27;20027;-78
2022/09/07 03:03:21;;;;;;;4.07;2.80;;;;;;;14.25;61.86;95258.88;5118311;27;20037;-77
2022/09/07 03:05:57;;;;;;;4.63;2.83;;;;;;;14.21;61.81;95268.78;5134853;27;20035;-78
2022/09/07 03:08:30;;;;;;;3.25;2.53;;;;;;;14.11;62.21;95262.72;5118379;27;20027;-77
2022/09/07 03:10:56;;;;;;;4.05;2.70;;;;;;;14.13;62.20;95279.09;5117683;27;20066;-78
2022/09/07 03:13:26;;;;;;;4.55;2.70;;;;;;;13.92;62.49;95263.53;5100312;27;20058;-77
2022/09/07 03:15:51;;;;;;;4.25;2.83;;;;;;;13.91;62.31;95274.16;5100867;27;20500;-77
2022/09/07 03:18:17;;;;;;;5.93;2.95;;;;;;;13.91;62.28;95267.13;5134529;27;20028;-77
2022/09/07 03:20:42;;;;;;;4.00;2.90;;;;;;;13.78;62.29;95272.59;5117389;27;20064;-78
2022/09/07 03:23:08;;;;;;;4.68;2.70;;;;;;;13.85;62.37;95278.94;5117183;27;20030;-78
2022/09/07 03:25:33;;;;;;;3.33;2.50;;;;;;;13.80;62.17;95256.81;5100480;27;20023;-78
2022/09/07 03:27:59;;;;;;;3.28;2.70;;;;;;;13.92;62.05;95271.38;5100050;27;20038;-78
2022/09/07 03:30:24;;;;;;;3.00;2.38;;;;;;;13.83;61.98;95265.19;5134178;27;20032;-78
2022/09/07 03:32:49;;;;;;;4.55;2.63;;;;;;;13.88;61.98;95266.59;5117030;27;20035;-78
2022/09/07 03:35:15;;;;;;;7.80;2.65;;;;;;;13.93;61.76;95270.44;5117143;27;20541;-78
2022/09/07 03:37:41;;;;;;;4.72;2.67;;;;;;;13.88;61.90;95271.81;5134054;27;20045;-78
2022/09/07 03:40:08;;;;;;;4.07;2.50;;;;;;;13.86;61.94;95277.97;5100137;27;20046;-78
2022/09/07 03:42:33;;;;;;;3.83;2.35;;;;;;;13.83;62.22;95274.81;5133958;27;20023;-78
2022/09/07 03:44:59;;;;;;;5.05;2.50;;;;;;;13.71;62.40;95287.19;5117122;27;20474;-78
2022/09/07 03:47:24;;;;;;;5.05;2.50;;;;;;;13.63;62.57;95284.41;5116757;27;20450;-78
2022/09/07 03:49:50;;;;;;;4.30;2.47;;;;;;;13.67;62.30;95290.19;5133815;27;20023;-78
2022/09/07 03:52:16;;;;;;;4.15;2.60;;;;;;;13.52;62.68;95277.50;5099884;27;20385;-78
2022/09/07 03:54:42;;;;;;;5.25;2.90;;;;;;;13.55;62.63;95290.28;5116725;27;20016;-78
2022/09/07 03:57:07;;;;;;;3.47;2.30;;;;;;;13.52;62.79;95295.78;5116520;27;20481;-78
2022/09/07 03:59:33;;;;;;;3.67;2.55;;;;;;;13.38;63.12;95286.53;5134170;27;20023;-78
2022/09/07 04:01:58;;;;;;;3.25;2.17;;;;;;;13.40;62.87;95284.63;5133739;27;20433;-77
2022/09/07 04:04:24;;;;;;;6.00;2.50;;;;;;;13.40;62.93;95292.47;5099779;27;20541;-78
2022/09/07 04:06:49;;;;;;;4.38;2.60;;;;;;;13.43;62.84;95290.50;5134036;27;20126;-78
2022/09/07 04:09:15;;;;;;;3.67;2.40;;;;;;;13.40;63.04;95291.63;5098529;27;20031;-77
2022/09/07 04:11:41;;;;;;;5.18;2.50;;;;;;;13.45;62.54;95299.03;5116953;27;20127;-78
2022/09/07 04:14:07;;;;;;;3.25;2.15;;;;;;;13.44;62.67;95294.78;5116683;27;20023;-78
2022/09/07 04:16:32;;;;;;;3.90;2.38;;;;;;;13.44;62.69;95297.41;5099838;27;20039;-77
2022/09/07 04:18:58;;;;;;;3.85;2.40;;;;;;;13.46;62.60;95303.31;5116505;27;20473;-78
2022/09/07 04:21:25;;;;;;;3.33;2.30;;;;;;;13.41;62.86;95309.75;5116900;27;20443;-77
2022/09/07 04:23:50;;;;;;;2.95;2.30;;;;;;;13.35;62.88;95299.03;5116257;27;20110;-77
2022/09/07 04:26:20;;;;;;;4.35;2.35;;;;;;;13.47;62.44;95307.56;5133352;27;20031;-77
2022/09/07 04:28:46;;;;;;;7.10;2.80;;;;;;;13.46;62.57;95313.78;5116742;27;20461;-78
2022/09/07 04:31:12;;;;;;;5.43;2.00;;;;;;;13.54;62.02;95313.91;5099110;27;20034;-77
2022/09/07 04:33:37;;;;;;;5.43;2.40;;;;;;;13.60;62.43;95302.94;5116017;27;20027;-77
2022/09/07 04:36:03;;;;;;;4.60;2.40;;;;;;;13.61;62.92;95309.81;5098994;27;20546;-77
2022/09/07 04:38:29;;;;;;;5.13;2.92;;;;;;;13.67;63.10;95313.66;5115895;27;20122;-78
2022/09/07 04:41:02;;;;;;;4.00;3.00;;;;;;;13.65;63.25;95308.59;5133161;27;20035;-77
2022/09/07 04:43:28;;;;;;;5.55;2.58;;;;;;;13.64;63.00;95307.75;5115629;27;20058;-77
2022/09/07 04:45:53;;;;;;;6.72;2.58;;;;;;;13.72;63.03;95312.31;5133199;27;20069;-78
2022/09/07 04:48:19;;;;;;;3.45;2.33;;;;;;;13.79;63.17;95309.97;5098849;27;20031;-77
2022/09/07 04:50:44;;;;;;;3.10;2.40;;;;;;;13.73;62.84;95282.63;5132703;27;20046;-78
2022/09/07 04:53:10;;;;;;;3.20;2.50;;;;;;;13.83;62.40;95293.91;5132805;27;20024;-77
2022/09/07 04:55:35;;;;;;;2.88;2.20;;;;;;;14.11;61.67;95309.75;5134338;27;20039;-78
2022/09/07 04:58:01;;;;;;;3.42;2.17;;;;;;;14.84;59.39;95307.53;5115529;27;20027;-77
2022/09/07 05:00:26;;;;;;;2.70;1.92;;;;;;;15.50;56.62;95303.19;5132896;27;20061;-78
2022/09/07 05:02:51;;;;;;;4.45;2.10;;;;;;;16.25;53.85;95303.84;5115821;27;20544;-78
2022/09/07 05:05:17;;;;;;;3.08;2.03;;;;;;;16.99;52.45;95294.75;5132592;27;20031;-78
2022/09/07 05:07:43;;;;;;;3.40;1.92;;;;;;;17.68;50.45;95298.22;5098179;27;20027;-78
2022/09/07 05:10:08;;;;;;;3.53;1.80;;;;;;;18.25;48.92;95290.50;5132643;27;20039;-79
2022/09/07 05:12:34;;;;;;;2.95;2.05;;;;;;;18.90;46.63;95291.50;5133712;27;20080;-79
2022/09/07 05:15:00;;;;;;;3.60;1.77;;;;;;;19.48;45.61;95305.38;5115489;27;20031;-78
2022/09/07 05:17:25;;;;;;;5.00;1.85;;;;;;;19.94;44.70;95303.72;5132370;27;20076;-78
2022/09/07 05:19:51;;;;;;;4.25;1.80;;;;;;;20.16;44.39;95306.56;5115311;27;20027;-79
2022/09/07 05:22:16;;;;;;;3.38;2.13;;;;;;;20.22;44.61;95306.66;5132288;27;20039;-78
2022/09/07 05:24:42;;;;;;;2.67;1.83;;;;;;;20.10;44.31;95305.44;5132486;27;20023;-79
2022/09/07 05:27:07;;;;;;;2.65;2.17;;;;;;;19.81;46.38;95306.91;5115213;27;20034;-78
2022/09/07 05:29:33;;;;;;;4.93;2.50;;;;;;;19.67;46.02;95297.09;5115156;27;20026;-78
2022/09/07 05:31:58;;;;;;;4.85;2.00;;;;;;;19.45;45.55;95305.72;5133303;27;20031;-78
2022/09/07 05:34:24;;;;;;;6.75;2.20;;;;;;;19.13;47.63;95305.63;5098367;27;20533;-78
2022/09/07 05:36:49;;;;;;;4.28;2.53;;;;;;;18.98;47.51;95291.50;5115044;27;20035;-78
2022/09/07 05:39:15;;;;;;;3.67;2.40;;;;;;;19.01;48.77;95306.16;5097931;27;20039;-78
2022/09/07 05:41:40;;;;;;;4.60;2.30;;;;;;;19.09;48.83;95301.69;5097825;27;20023;-78
2022/09/07 05:44:06;;;;;;;4.25;2.10;;;;;;;19.07;47.92;95297.56;5114683;27;20043;-78
2022/09/07 05:46:31;;;;;;;3.45;2.10;;;;;;;18.88;49.52;95283.78;5097820;27;20420;-78
2022/09/07 05:48:59;;;;;;;2.50;1.98;;;;;;;18.97;47.88;95300.38;5133057;27;20062;-79
2022/09/07 05:51:24;;;;;;;2.78;1.80;;;;;;;18.98;49.28;95296.78;5132059;27;20031;-78
2022/09/07 05:53:50;;;;;;;2.80;1.90;;;;;;;19.03;49.11;95296.25;5097720;27;20095;-78
2022/09/07 05:56:15;;;;;;;3.90;1.88;;;;;;;19.02;48.00;95294.63;5114710;27;20046;-78
2022/09/07 05:58:41;;;;;;;4.43;2.00;;;;;;;18.94;47.32;95290.19;5097630;27;20417;-78
2022/09/07 06:01:11;;;;;;;6.47;2.05;;;;;;;19.02;47.34;95290.16;5114728;27;20027;-78
2022/09/07 06:03:37;;;;;;;4.15;1.88;;;;;;;18.99;47.37;95285.25;5115236;27;20482;-78
2022/09/07 06:06:11;;;;;;;3.70;2.25;;;;;;;19.06;46.51;95294.13;5114497;27;20397;-78
2022/09/07 06:08:37;;;;;;;2.60;2.10;;;;;;;18.98;46.96;95286.25;5114526;27;20027;-78
2022/09/07 06:11:07;;;;;;;7.85;3.05;;;;;;;18.87;48.25;95287.41;5114615;27;20428;-78
2022/09/07 06:13:33;;;;;;;5.95;3.15;;;;;;;18.84;48.44;95289.56;5114641;27;20453;-79
2022/09/07 06:16:02;;;;;;;5.95;3.10;;;;;;;18.88;48.76;95290.84;5097350;27;20126;-78
2022/09/07 06:18:31;;;;;;;5.68;2.58;;;;;;;19.11;48.74;95306.78;5113892;27;20027;-78
2022/09/07 06:21:06;;;;;;;9.35;3.05;;;;;;;19.25;47.89;95308.75;5114570;27;20023;-78
2022/09/07 06:23:33;;;;;;;6.55;3.00;;;;;;;19.37;47.31;95302.09;5114196;27;20026;-78
2022/09/07 06:25:58;;;;;;;3.08;2.30;;;;;;;19.45;47.28;95303.91;5114174;27;20023;-78
2022/09/07 06:28:28;;;;;;;6.78;2.63;;;;;;;19.41;46.96;95297.31;5130957;27;20511;-78
2022/09/07 06:31:16;;;;;;;5.80;2.80;;;;;;;19.37;46.82;95307.38;5113836;27;20066;-78
2022/09/07 06:33:43;;;;;;;4.20;2.40;;;;;;;19.13;46.54;95296.91;5099051;27;20566;-79
2022/09/07 06:36:16;;;;;;;8.20;2.78;;;;;;;19.18;47.31;95300.66;5114310;28;20035;-78
2022/09/07 06:38:42;;;;;;;5.78;2.67;;;;;;;19.27;46.95;95298.00;5115028;27;20027;-78
2022/09/07 06:41:11;;;;;;;6.30;2.83;;;;;;;19.40;45.89;95300.94;5113908;28;20027;-78
2022/09/07 06:43:36;;;;;;;6.03;2.50;;;;;;;19.48;46.35;95300.94;5114193;27;20062;-78
2022/09/07 06:46:02;;;;;;;2.65;2.03;;;;;;;19.55;46.20;95311.59;5096898;28;20523;-78
2022/09/07 06:48:27;;;;;;;5.57;2.50;;;;;;;19.61;46.20;95309.13;5113928;28;20027;-78
2022/09/07 06:51:03;;;;;;;5.25;2.40;;;;;;;19.80;46.05;95301.81;5096928;28;20038;-78
2022/09/07 06:53:30;;;;;;;3.10;2.38;;;;;;;19.97;45.64;95298.09;5114211;28;20015;-78
2022/09/07 06:55:55;;;;;;;4.70;2.20;;;;;;;20.08;45.63;95305.59;5113931;28;20081;-78
2022/09/07 06:58:23;;;;;;;3.95;2.28;;;;;;;20.14;45.07;95300.63;5130894;28;20019;-78
2022/09/07 07:00:49;;;;;;;3.20;2.20;;;;;;;20.21;44.72;95307.69;5114240;28;20033;-78
2022/09/07 07:03:14;;;;;;;5.20;2.45;;;;;;;20.30;44.67;95314.53;5113478;28;20027;-79
2022/09/07 07:05:40;;;;;;;3.53;2.45;;;;;;;20.38;44.17;95318.94;5113732;28;20039;-79
2022/09/07 07:08:05;;;;;;;4.75;2.22;;;;;;;20.40;44.28;95310.88;5113951;28;20035;-78
2022/09/07 07:10:31;;;;;;;4.47;2.25;;;;;;;20.49;44.46;95323.00;5131008;28;20412;-79
2022/09/07 07:12:56;;;;;;;3.88;2.20;;;;;;;20.56;44.50;95318.69;5113429;28;20039;-79
2022/09/07 07:15:26;;;;;;;6.10;2.60;;;;;;;20.64;43.60;95312.53;5130839;27;20031;-79
2022/09/07 07:17:51;;;;;;;6.07;2.25;;;;;;;20.74;44.45;95315.75;5096972;28;20027;-79
2022/09/07 07:20:17;;;;;;;5.80;2.33;;;;;;;20.90;44.05;95315.63;5113672;28;20023;-79
2022/09/07 07:22:42;;;;;;;3.45;2.20;;;;;;;20.98;43.94;95317.38;5113305;28;20049;-79
2022/09/07 07:25:08;;;;;;;4.03;2.35;;;;;;;21.11;43.65;95322.00;5113513;28;20039;-79
2022/09/07 07:27:33;;;;;;;5.05;2.40;;;;;;;21.08;43.78;95307.34;5096616;28;20027;-79
2022/09/07 07:29:59;;;;;;;2.83;2.03;;;;;;;21.17;42.04;95318.66;5113375;28;20473;-79
2022/09/07 07:32:24;;;;;;;10.63;2.65;;;;;;;21.19;42.60;95314.00;5096296;28;20409;-79
2022/09/07 07:34:50;;;;;;;3.38;2.15;;;;;;;21.20;43.58;95318.28;5113570;28;20024;-79
2022/09/07 07:37:16;;;;;;;4.35;2.33;;;;;;;21.28;42.99;95320.84;5131781;27;20035;-79
2022/09/07 07:39:41;;;;;;;3.13;2.03;;;;;;;21.36;43.13;95320.75;5096563;28;20042;-79
2022/09/07 07:42:07;;;;;;;3.75;2.20;;;;;;;21.40;43.44;95316.81;5113417;28;20019;-79
2022/09/07 07:44:33;;;;;;;5.47;2.70;;;;;;;21.44;42.57;95319.09;5133166;27;20047;-79
2022/09/07 07:46:58;;;;;;;2.47;2.03;;;;;;;21.40;42.44;95311.53;5117201;27;20110;-79
2022/09/07 07:49:24;;;;;;;3.80;2.45;;;;;;;21.56;42.44;95323.75;5100073;27;20034;-80
2022/09/07 07:51:49;;;;;;;3.28;2.25;;;;;;;21.60;42.80;95314.44;5134190;27;20058;-80
2022/09/07 07:54:14;;;;;;;3.60;2.08;;;;;;;21.66;42.65;95315.53;5134023;27;20111;-79
2022/09/07 07:56:40;;;;;;;5.68;2.50;;;;;;;21.77;42.26;95312.41;5100165;27;20031;-80
2022/09/07 07:59:05;;;;;;;5.95;2.35;;;;;;;21.91;42.11;95326.63;5116898;27;20034;-79
2022/09/07 08:01:31;;;;;;;4.55;2.10;;;;;;;22.01;41.83;95319.22;5133983;27;20424;-79
2022/09/07 08:03:56;;;;;;;4.82;2.33;;;;;;;22.02;41.07;95320.84;5116696;27;20473;-79
2022/09/07 08:06:22;;;;;;;3.95;2.15;;;;;;;22.07;41.01;95318.47;5135597;27;20027;-79
2022/09/07 08:08:47;;;;;;;3.90;2.20;;;;;;;22.15;40.53;95317.56;5134942;27;20459;-79
2022/09/07 08:11:17;;;;;;;5.13;2.30;;;;;;;22.17;41.15;95320.81;5134694;27;20065;-79
2022/09/07 08:13:43;;;;;;;7.10;2.70;;;;;;;22.26;41.04;95305.69;5133801;27;20377;-79
2022/09/07 08:16:09;;;;;;;3.85;2.20;;;;;;;22.33;39.99;95311.06;5116969;27;20505;-79
2022/09/07 08:18:35;;;;;;;5.85;2.40;;;;;;;22.30;40.28;95302.47;5133663;27;20029;-79
2022/09/07 08:21:01;;;;;;;7.38;2.45;;;;;;;22.36;40.30;95316.78;5116564;27;20117;-79
2022/09/07 08:23:27;;;;;;;5.43;2.33;;;;;;;22.42;39.96;95299.31;5099793;27;20027;-79
2022/09/07 08:25:53;;;;;;;4.40;2.40;;;;;;;22.44;39.20;95308.72;5133403;27;20039;-79
2022/09/07 08:28:22;;;;;;;4.28;1.88;;;;;;;22.53;40.21;95298.81;5099374;27;20507;-79
2022/09/07 08:30:47;;;;;;;3.35;2.45;;;;;;;22.66;40.29;95303.44;5134353;27;20035;-79
2022/09/07 08:33:13;;;;;;;3.38;2.28;;;;;;;22.73;39.67;95307.78;5099125;27;20060;-79
2022/09/07 08:35:39;;;;;;;4.22;2.38;;;;;;;22.83;39.05;95298.69;5099235;27;20031;-79
2022/09/07 08:38:04;;;;;;;2.97;2.15;;;;;;;22.85;39.96;95296.69;5116377;27;21002;-79
2022/09/07 08:40:30;;;;;;;5.47;2.38;;;;;;;22.97;39.42;95297.81;5098786;27;20043;-79
2022/09/07 08:43:26;;;;;;;4.00;2.13;;;;;;;23.01;39.14;95293.75;5115728;27;20030;-78
2022/09/07 08:45:53;;;;;;;10.82;2.40;;;;;;;22.97;38.37;95292.50;5133043;27;20453;-79
2022/09/07 08:48:22;;;;;;;4.53;2.30;;;;;;;22.93;39.36;95289.41;5134274;27;20087;-79
2022/09/07 08:51:10;;;;;;;6.55;2.28;;;;;;;23.06;39.55;95291.34;5099181;27;20480;-79
2022/09/07 08:53:39;;;;;;;4.35;2.42;;;;;;;23.22;38.49;95279.66;5099037;27;20033;-79
2022/09/07 08:56:10;;;;;;;7.07;2.60;;;;;;;23.32;38.90;95288.09;5115907;27;20027;-79
2022/09/07 08:58:43;;;;;;;4.63;2.42;;;;;;;23.49;39.15;95287.78;5099207;27;20023;-79
2022/09/07 09:01:17;;;;;;;4.15;2.40;;;;;;;23.52;37.24;95277.59;5115721;27;20170;-79
2022/09/07 09:03:42;;;;;;;6.25;2.17;;;;;;;23.53;38.10;95268.59;5099498;27;20019;-79
2022/09/07 09:06:17;;;;;;;3.35;2.20;;;;;;;23.42;38.79;95269.16;5115596;27;20038;-79
2022/09/07 09:08:57;;;;;;;4.05;2.42;;;;;;;23.51;38.05;95267.97;5133802;27;20491;-79
2022/09/07 09:11:44;;;;;;;4.57;2.58;;;;;;;23.56;37.70;95270.06;5134138;27;20070;-79
2022/09/07 09:14:41;;;;;;;5.57;3.25;;;;;;;23.61;38.28;95263.13;5133717;27;20058;-79
2022/09/07 09:17:15;;;;;;;3.60;2.47;;;;;;;23.67;38.42;95260.72;5117845;27;20126;-79
2022/09/07 09:19:59;;;;;;;4.85;2.58;;;;;;;23.73;37.38;95254.66;5116631;27;20031;-79
2022/09/07 09:22:27;;;;;;;4.75;2.40;;;;;;;23.69;37.99;95243.59;5133658;27;20102;-79
2022/09/07 09:24:59;;;;;;;5.80;2.40;;;;;;;23.84;37.71;95251.44;5115248;27;20029;-79
2022/09/07 09:27:24;;;;;;;4.35;2.50;;;;;;;23.99;38.23;95253.94;5098575;27;20027;-79
2022/09/07 09:29:50;;;;;;;3.83;2.58;;;;;;;24.09;37.10;95249.06;5115052;27;20076;-79
2022/09/07 09:32:51;;;;;;;3.58;2.50;;;;;;;24.17;37.50;95240.91;5097882;27;20023;-79
2022/09/07 09:35:35;;;;;;;3.78;2.53;;;;;;;24.12;36.74;95243.34;5132232;27;20140;-79
2022/09/07 09:38:03;;;;;;;4.72;2.63;;;;;;;24.07;38.18;95241.31;5131983;27;20031;-80
2022/09/07 09:40:37;;;;;;;3.53;2.60;;;;;;;24.24;37.81;95241.75;5115331;27;20050;-79
2022/09/07 09:43:16;;;;;;;6.07;2.13;;;;;;;24.31;36.54;95237.25;5114370;27;20027;-80
2022/09/07 09:45:44;;;;;;;3.88;2.30;;;;;;;24.36;36.97;95233.19;5114972;27;20031;-79
2022/09/07 09:48:13;;;;;;;5.90;2.60;;;;;;;24.40;37.20;95229.91;5114807;27;20031;-79
2022/09/07 09:50:42;;;;;;;5.23;2.70;;;;;;;24.48;38.05;95232.41;5115133;27;20037;-79
2022/09/07 09:53:22;;;;;;;6.53;2.65;;;;;;;24.56;37.53;95233.25;5131800;27;20269;-79
2022/09/07 09:55:50;;;;;;;3.78;2.60;;;;;;;24.57;36.93;95216.28;5098803;27;20073;-79
2022/09/07 09:58:39;;;;;;;4.97;2.70;;;;;;;24.65;37.33;95229.34;5097486;27;20557;-79
2022/09/07 10:01:31;;;;;;;5.88;2.90;;;;;;;24.59;36.84;95212.41;5131741;27;20027;-79
2022/09/07 10:03:58;;;;;;;3.20;2.70;;;;;;;24.72;37.21;95219.56;5131723;27;20028;-79
2022/09/07 10:06:24;;;;;;;6.22;2.88;;;;;;;24.67;36.04;95222.00;5114254;28;20469;-79
2022/09/07 10:08:56;;;;;;;5.63;2.85;;;;;;;24.62;36.78;95227.13;5131302;27;20045;-80
2022/09/07 10:11:41;;;;;;;7.05;2.83;;;;;;;24.66;36.98;95212.41;5114764;27;20465;-79
2022/09/07 10:14:18;;;;;;;3.53;2.60;;;;;;;24.74;36.98;95206.91;5114189;27;20019;-79
2022/09/07 10:16:44;;;;;;;5.10;2.70;;;;;;;24.84;37.78;95209.13;5098578;27;20462;-80
2022/09/07 10:19:41;;;;;;;6.93;2.80;;;;;;;24.87;36.88;95193.59;5097031;27;20031;-79
2022/09/07 10:22:31;;;;;;;3.13;2.55;;;;;;;24.94;36.98;95193.59;5080335;27;20076;-80
2022/09/07 10:24:57;;;;;;;4.55;2.60;;;;;;;24.98;36.98;95190.28;5123423;27;20076;-79
2022/09/07 10:27:33;;;;;;;3.88;2.75;;;;;;;25.02;37.33;95189.88;5113976;27;20023;-80
2022/09/07 10:29:59;;;;;;;6.75;2.97;;;;;;;24.94;37.09;95181.13;5131133;27;20027;-79
2022/09/07 10:32:28;;;;;;;4.30;2.72;;;;;;;25.07;37.24;95195.38;5114126;27;20044;-80
2022/09/07 10:35:00;;;;;;;4.03;2.70;;;;;;;25.11;36.64;95186.00;5132208;27;20031;-79
2022/09/07 10:37:28;;;;;;;5.55;2.97;;;;;;;25.14;36.77;95181.09;5132153;27;20027;-79
2022/09/07 10:40:38;;;;;;;5.22;2.85;;;;;;;25.21;36.85;95178.41;5132461;27;20099;-79
2022/09/07 10:43:12;;;;;;;4.22;3.17;;;;;;;25.16;37.01;95175.59;5088518;28;20035;-80
2022/09/07 10:45:56;;;;;;;3.78;2.80;;;;;;;25.21;37.01;95170.44;5125701;27;20060;-80
2022/09/07 10:48:30;;;;;;;3.67;2.58;;;;;;;25.28;36.49;95178.41;5114038;28;20118;-79
2022/09/07 10:50:57;;;;;;;3.38;2.80;;;;;;;25.22;37.00;95173.94;5131042;27;20052;-79
2022/09/07 10:53:56;;;;;;;4.53;2.70;;;;;;;25.21;37.30;95172.28;5131933;27;20026;-80
2022/09/07 10:56:25;;;;;;;4.43;3.20;;;;;;;25.22;36.93;95169.44;5113582;28;20035;-79
2022/09/07 10:59:14;;;;;;;5.07;2.90;;;;;;;25.28;37.12;95171.25;5096805;28;20027;-80
2022/09/07 11:01:48;;;;;;;4.10;3.10;;;;;;;25.24;36.20;95164.72;5132484;27;20050;-79
2022/09/07 11:04:38;;;;;;;4.18;3.08;;;;;;;25.28;37.02;95152.63;5131943;27;20027;-80
2022/09/07 11:07:19;;;;;;;3.92;3.03;;;;;;;25.36;36.46;95154.25;5132296;27;20063;-79
2022/09/07 11:09:59;;;;;;;4.18;2.65;;;;;;;25.30;36.06;95161.22;5130876;27;20031;-80
2022/09/07 11:12:34;;;;;;;5.88;3.38;;;;;;;25.19;36.37;95146.75;5098158;28;20042;-79
2022/09/07 11:15:12;;;;;;;4.47;3.17;;;;;;;25.27;37.26;95148.34;5113521;28;20031;-79
2022/09/07 11:17:44;;;;;;;3.90;3.10;;;;;;;25.38;37.16;95147.69;5132113;27;20106;-80
2022/09/07 11:20:34;;;;;;;4.72;3.08;;;;;;;25.50;37.06;95149.69;5117817;27;20099;-79
2022/09/07 11:23:18;;;;;;;5.40;3.40;;;;;;;25.49;35.63;95143.56;5136027;27;20035;-80
2022/09/07 11:25:53;;;;;;;7.25;3.22;;;;;;;25.47;35.63;95139.47;5117913;27;20023;-79
2022/09/07 11:28:41;;;;;;;3.63;3.10;;;;;;;25.42;35.44;95132.13;5134638;27;20051;-79
2022/09/07 11:31:20;;;;;;;3.70;2.97;;;;;;;25.51;35.72;95135.38;5119119;27;20066;-80
2022/09/07 11:34:27;;;;;;;4.60;2.85;;;;;;;25.57;35.89;95132.66;5134348;27;20392;-79
2022/09/07 11:37:08;;;;;;;4.57;3.40;;;;;;;25.55;35.77;95128.59;5119794;27;20444;-79
2022/09/07 11:39:59;;;;;;;4.38;2.80;;;;;;;25.69;35.77;95126.69;5100396;27;20019;-80
2022/09/07 11:42:30;;;;;;;4.35;3.08;;;;;;;25.60;35.90;95124.28;5134491;27;20091;-80
2022/09/07 11:45:11;;;;;;;3.67;3.03;;;;;;;25.63;35.74;95117.69;5100596;27;20055;-79
2022/09/07 11:47:40;;;;;;;3.60;3.30;;;;;;;25.71;35.94;95125.41;5135377;27;20024;-80
2022/09/07 11:50:16;;;;;;;4.55;3.05;;;;;;;25.71;35.69;95114.78;5135317;27;20507;-79